sensor_id;sensor_type;location;lat;lon;timestamp;P1;durP1;ratioP1;P2;durP2;ratioP2
9328;SDS011;4703;48.748;19.142;2022-09-28T00:01:18;9.13;;;8.23;;
9328;SDS011;4703;48.748;19.142;2022-09-28T00:03:51;14.93;;;10.33;;
9328;SDS011;4703;48.748;19.142;2022-09-28T00:06:23;7.10;;;5.97;;
9328;SDS011;4703;48.748;19.142;2022-09-28T00:08:52;5.83;;;5.33;;
9328;SDS011;4703;48.748;19.142;2022-09-28T00:11:21;5.33;;;4.83;;
9328;SDS011;4703;48.748;19.142;2022-09-28T00:13:54;5.80;;;4.50;;
9328;SDS011;4703;48.748;19.142;2022-09-28T00:16:28;8.13;;;5.87;;
9328;SDS011;4703;48.748;19.142;2022-09-28T00:18:58;7.93;;;6.37;;
9328;SDS011;4703;48.748;19.142;2022-09-28T00:21:27;8.67;;;6.80;;
9328;SDS011;4703;48.748;19.142;2022-09-28T00:23:57;7.30;;;6.60;;
9328;SDS011;4703;48.748;19.142;2022-09-28T00:26:39;9.10;;;6.20;;
9328;SDS011;4703;48.748;19.142;2022-09-28T00:29:23;6.10;;;5.50;;
9328;SDS011;4703;48.748;19.142;2022-09-28T00:31:58;5.80;;;5.20;;
9328;SDS011;4703;48.748;19.142;2022-09-28T00:34:36;6.00;;;5.50;;
9328;SDS011;4703;48.748;19.142;2022-09-28T00:37:06;4.50;;;4.10;;
9328;SDS011;4703;48.748;19.142;2022-09-28T00:39:34;6.50;;;5.90;;
9328;SDS011;4703;48.748;19.142;2022-09-28T00:42:03;7.30;;;6.60;;
9328;SDS011;4703;48.748;19.142;2022-09-28T00:44:38;7.40;;;6.80;;
9328;SDS011;4703;48.748;19.142;2022-09-28T00:50:11;7.60;;;6.80;;
9328;SDS011;4703;48.748;19.142;2022-09-28T00:55:42;9.80;;;8.73;;
9328;SDS011;4703;48.748;19.142;2022-09-28T00:58:14;12.70;;;10.23;;
9328;SDS011;4703;48.748;19.142;2022-09-28T01:00:47;9.47;;;8.20;;
9328;SDS011;4703;48.748;19.142;2022-09-28T01:03:15;12.67;;;10.13;;
9328;SDS011;4703;48.748;19.142;2022-09-28T01:05:42;11.90;;;8.87;;
9328;SDS011;4703;48.748;19.142;2022-09-28T01:08:11;13.43;;;9.43;;
9328;SDS011;4703;48.748;19.142;2022-09-28T01:10:39;14.77;;;8.80;;
9328;SDS011;4703;48.748;19.142;2022-09-28T01:13:09;10.60;;;8.43;;
9328;SDS011;4703;48.748;19.142;2022-09-28T01:16:01;11.07;;;8.93;;
9328;SDS011;4703;48.748;19.142;2022-09-28T01:18:35;11.23;;;8.83;;
9328;SDS011;4703;48.748;19.142;2022-09-28T01:21:27;11.63;;;9.50;;
9328;SDS011;4703;48.748;19.142;2022-09-28T01:24:06;12.67;;;10.13;;
9328;SDS011;4703;48.748;19.142;2022-09-28T01:27:09;11.13;;;10.03;;
9328;SDS011;4703;48.748;19.142;2022-09-28T01:30:03;9.07;;;8.03;;
9328;SDS011;4703;48.748;19.142;2022-09-28T01:35:22;10.70;;;8.37;;
9328;SDS011;4703;48.748;19.142;2022-09-28T01:40:44;8.20;;;7.30;;
9328;SDS011;4703;48.748;19.142;2022-09-28T01:43:14;9.60;;;7.50;;
9328;SDS011;4703;48.748;19.142;2022-09-28T01:46:03;9.60;;;6.67;;
9328;SDS011;4703;48.748;19.142;2022-09-28T01:48:44;8.40;;;6.83;;
9328;SDS011;4703;48.748;19.142;2022-09-28T01:54:23;8.20;;;6.50;;
9328;SDS011;4703;48.748;19.142;2022-09-28T01:57:05;7.50;;;6.50;;
9328;SDS011;4703;48.748;19.142;2022-09-28T01:59:51;8.90;;;7.10;;
9328;SDS011;4703;48.748;19.142;2022-09-28T02:02:27;10.00;;;8.20;;
9328;SDS011;4703;48.748;19.142;2022-09-28T02:05:07;8.10;;;7.07;;
9328;SDS011;4703;48.748;19.142;2022-09-28T02:07:42;8.67;;;7.47;;
9328;SDS011;4703;48.748;19.142;2022-09-28T02:10:34;9.67;;;7.47;;
9328;SDS011;4703;48.748;19.142;2022-09-28T02:13:19;12.03;;;7.03;;
9328;SDS011;4703;48.748;19.142;2022-09-28T02:15:56;8.00;;;6.70;;
9328;SDS011;4703;48.748;19.142;2022-09-28T02:18:36;8.60;;;7.70;;
9328;SDS011;4703;48.748;19.142;2022-09-28T02:21:08;8.83;;;7.60;;
9328;SDS011;4703;48.748;19.142;2022-09-28T02:23:54;9.57;;;8.60;;
9328;SDS011;4703;48.748;19.142;2022-09-28T02:26:29;10.03;;;8.00;;
9328;SDS011;4703;48.748;19.142;2022-09-28T02:29:00;9.07;;;8.13;;
9328;SDS011;4703;48.748;19.142;2022-09-28T02:31:27;10.20;;;7.83;;
9328;SDS011;4703;48.748;19.142;2022-09-28T02:33:55;8.50;;;7.60;;
9328;SDS011;4703;48.748;19.142;2022-09-28T02:36:26;8.80;;;6.47;;
9328;SDS011;4703;48.748;19.142;2022-09-28T02:38:55;14.33;;;6.40;;
9328;SDS011;4703;48.748;19.142;2022-09-28T02:47:52;6.53;;;5.90;;
9328;SDS011;4703;48.748;19.142;2022-09-28T02:50:31;6.83;;;5.80;;
9328;SDS011;4703;48.748;19.142;2022-09-28T02:56:21;7.00;;;6.17;;
9328;SDS011;4703;48.748;19.142;2022-09-28T03:02:23;6.37;;;5.10;;
9328;SDS011;4703;48.748;19.142;2022-09-28T03:07:51;7.03;;;6.13;;
9328;SDS011;4703;48.748;19.142;2022-09-28T03:10:47;6.77;;;6.03;;
9328;SDS011;4703;48.748;19.142;2022-09-28T03:13:24;6.93;;;5.67;;
9328;SDS011;4703;48.748;19.142;2022-09-28T03:16:12;6.83;;;5.80;;
9328;SDS011;4703;48.748;19.142;2022-09-28T03:18:43;7.27;;;6.20;;
9328;SDS011;4703;48.748;19.142;2022-09-28T03:21:11;8.20;;;6.43;;
9328;SDS011;4703;48.748;19.142;2022-09-28T03:23:39;7.73;;;6.90;;
9328;SDS011;4703;48.748;19.142;2022-09-28T03:26:07;7.07;;;6.37;;
9328;SDS011;4703;48.748;19.142;2022-09-28T03:28:36;9.13;;;6.60;;
9328;SDS011;4703;48.748;19.142;2022-09-28T03:31:04;8.17;;;6.37;;
9328;SDS011;4703;48.748;19.142;2022-09-28T03:33:31;9.10;;;6.63;;
9328;SDS011;4703;48.748;19.142;2022-09-28T03:35:58;6.37;;;5.13;;
9328;SDS011;4703;48.748;19.142;2022-09-28T03:38:25;10.40;;;6.73;;
9328;SDS011;4703;48.748;19.142;2022-09-28T03:43:25;6.77;;;6.17;;
9328;SDS011;4703;48.748;19.142;2022-09-28T03:45:57;5.37;;;4.87;;
9328;SDS011;4703;48.748;19.142;2022-09-28T03:48:30;5.50;;;5.00;;
9328;SDS011;4703;48.748;19.142;2022-09-28T03:51:01;5.80;;;4.97;;
9328;SDS011;4703;48.748;19.142;2022-09-28T03:53:31;5.13;;;4.63;;
9328;SDS011;4703;48.748;19.142;2022-09-28T03:56:02;5.23;;;4.60;;
9328;SDS011;4703;48.748;19.142;2022-09-28T03:58:31;5.73;;;5.20;;
9328;SDS011;4703;48.748;19.142;2022-09-28T04:01:02;5.87;;;5.10;;
9328;SDS011;4703;48.748;19.142;2022-09-28T04:03:32;9.07;;;5.57;;
9328;SDS011;4703;48.748;19.142;2022-09-28T04:05:59;6.37;;;5.70;;
9328;SDS011;4703;48.748;19.142;2022-09-28T04:08:26;6.43;;;5.50;;
9328;SDS011;4703;48.748;19.142;2022-09-28T04:10:55;8.37;;;5.97;;
9328;SDS011;4703;48.748;19.142;2022-09-28T04:13:26;7.63;;;5.63;;
9328;SDS011;4703;48.748;19.142;2022-09-28T04:15:55;7.87;;;6.70;;
9328;SDS011;4703;48.748;19.142;2022-09-28T04:18:25;6.13;;;5.27;;
9328;SDS011;4703;48.748;19.142;2022-09-28T04:20:59;6.97;;;6.27;;
9328;SDS011;4703;48.748;19.142;2022-09-28T04:23:34;15.30;;;7.10;;
9328;SDS011;4703;48.748;19.142;2022-09-28T04:26:03;45.63;;;32.67;;
9328;SDS011;4703;48.748;19.142;2022-09-28T04:28:32;35.23;;;24.60;;
9328;SDS011;4703;48.748;19.142;2022-09-28T04:31:19;19.77;;;14.43;;
9328;SDS011;4703;48.748;19.142;2022-09-28T04:33:48;13.43;;;11.23;;
9328;SDS011;4703;48.748;19.142;2022-09-28T04:36:15;41.40;;;29.33;;
9328;SDS011;4703;48.748;19.142;2022-09-28T04:38:44;31.47;;;22.33;;
9328;SDS011;4703;48.748;19.142;2022-09-28T04:41:19;16.80;;;11.60;;
9328;SDS011;4703;48.748;19.142;2022-09-28T04:43:50;12.70;;;10.20;;
9328;SDS011;4703;48.748;19.142;2022-09-28T04:46:17;13.43;;;10.43;;
9328;SDS011;4703;48.748;19.142;2022-09-28T04:48:45;13.10;;;10.57;;
9328;SDS011;4703;48.748;19.142;2022-09-28T04:51:12;12.10;;;9.57;;
9328;SDS011;4703;48.748;19.142;2022-09-28T04:53:39;13.73;;;10.53;;
9328;SDS011;4703;48.748;19.142;2022-09-28T04:56:16;10.47;;;8.33;;
9328;SDS011;4703;48.748;19.142;2022-09-28T04:58:44;13.60;;;8.70;;
9328;SDS011;4703;48.748;19.142;2022-09-28T05:01:18;11.60;;;8.70;;
9328;SDS011;4703;48.748;19.142;2022-09-28T05:03:49;13.03;;;10.00;;
9328;SDS011;4703;48.748;19.142;2022-09-28T05:06:18;14.30;;;8.90;;
9328;SDS011;4703;48.748;19.142;2022-09-28T05:08:46;15.70;;;10.80;;
9328;SDS011;4703;48.748;19.142;2022-09-28T05:11:13;13.17;;;10.40;;
9328;SDS011;4703;48.748;19.142;2022-09-28T05:13:41;14.03;;;10.53;;
9328;SDS011;4703;48.748;19.142;2022-09-28T05:16:14;14.00;;;10.07;;
9328;SDS011;4703;48.748;19.142;2022-09-28T05:18:42;13.80;;;10.13;;
9328;SDS011;4703;48.748;19.142;2022-09-28T05:21:12;12.47;;;9.60;;
9328;SDS011;4703;48.748;19.142;2022-09-28T05:23:44;13.23;;;10.20;;
9328;SDS011;4703;48.748;19.142;2022-09-28T05:26:13;13.10;;;9.90;;
9328;SDS011;4703;48.748;19.142;2022-09-28T05:28:40;11.67;;;9.30;;
9328;SDS011;4703;48.748;19.142;2022-09-28T05:31:07;13.30;;;9.50;;
9328;SDS011;4703;48.748;19.142;2022-09-28T05:33:34;12.00;;;9.37;;
9328;SDS011;4703;48.748;19.142;2022-09-28T05:36:01;77.80;;;46.13;;
9328;SDS011;4703;48.748;19.142;2022-09-28T05:38:29;27.20;;;20.40;;
9328;SDS011;4703;48.748;19.142;2022-09-28T05:40:56;15.37;;;12.07;;
9328;SDS011;4703;48.748;19.142;2022-09-28T05:43:23;12.03;;;8.33;;
9328;SDS011;4703;48.748;19.142;2022-09-28T05:45:50;11.30;;;8.10;;
9328;SDS011;4703;48.748;19.142;2022-09-28T05:48:21;10.10;;;8.87;;
9328;SDS011;4703;48.748;19.142;2022-09-28T05:50:51;9.67;;;7.50;;
9328;SDS011;4703;48.748;19.142;2022-09-28T05:53:19;12.93;;;9.63;;
9328;SDS011;4703;48.748;19.142;2022-09-28T05:55:46;11.03;;;8.67;;
9328;SDS011;4703;48.748;19.142;2022-09-28T05:58:13;13.73;;;9.13;;
9328;SDS011;4703;48.748;19.142;2022-09-28T06:00:41;12.50;;;10.07;;
9328;SDS011;4703;48.748;19.142;2022-09-28T06:03:10;16.17;;;10.27;;
9328;SDS011;4703;48.748;19.142;2022-09-28T06:05:38;15.83;;;11.93;;
9328;SDS011;4703;48.748;19.142;2022-09-28T06:08:06;16.43;;;11.17;;
9328;SDS011;4703;48.748;19.142;2022-09-28T06:10:38;18.07;;;13.00;;
9328;SDS011;4703;48.748;19.142;2022-09-28T06:13:05;42.17;;;29.87;;
9328;SDS011;4703;48.748;19.142;2022-09-28T06:15:34;25.33;;;16.10;;
9328;SDS011;4703;48.748;19.142;2022-09-28T06:18:03;15.33;;;11.47;;
9328;SDS011;4703;48.748;19.142;2022-09-28T06:20:35;15.40;;;10.03;;
9328;SDS011;4703;48.748;19.142;2022-09-28T06:23:06;14.03;;;9.90;;
9328;SDS011;4703;48.748;19.142;2022-09-28T06:25:35;14.00;;;10.23;;
9328;SDS011;4703;48.748;19.142;2022-09-28T06:28:03;12.53;;;9.80;;
9328;SDS011;4703;48.748;19.142;2022-09-28T06:30:39;14.67;;;9.57;;
9328;SDS011;4703;48.748;19.142;2022-09-28T06:33:09;15.63;;;10.63;;
9328;SDS011;4703;48.748;19.142;2022-09-28T06:35:38;12.00;;;10.67;;
9328;SDS011;4703;48.748;19.142;2022-09-28T06:38:06;14.27;;;10.23;;
9328;SDS011;4703;48.748;19.142;2022-09-28T06:40:33;13.47;;;9.70;;
9328;SDS011;4703;48.748;19.142;2022-09-28T06:43:02;14.80;;;9.53;;
9328;SDS011;4703;48.748;19.142;2022-09-28T06:45:36;93.37;;;57.40;;
9328;SDS011;4703;48.748;19.142;2022-09-28T06:48:04;29.77;;;22.60;;
9328;SDS011;4703;48.748;19.142;2022-09-28T06:50:33;15.90;;;11.60;;
9328;SDS011;4703;48.748;19.142;2022-09-28T06:53:05;12.50;;;10.13;;
9328;SDS011;4703;48.748;19.142;2022-09-28T06:55:39;13.27;;;9.30;;
9328;SDS011;4703;48.748;19.142;2022-09-28T06:58:12;9.93;;;8.00;;
9328;SDS011;4703;48.748;19.142;2022-09-28T07:00:42;9.30;;;7.60;;
9328;SDS011;4703;48.748;19.142;2022-09-28T07:03:11;8.17;;;7.40;;
9328;SDS011;4703;48.748;19.142;2022-09-28T07:05:42;9.90;;;8.37;;
9328;SDS011;4703;48.748;19.142;2022-09-28T07:08:19;9.40;;;8.50;;
9328;SDS011;4703;48.748;19.142;2022-09-28T07:10:50;10.37;;;9.27;;
9328;SDS011;4703;48.748;19.142;2022-09-28T07:13:22;12.00;;;9.03;;
9328;SDS011;4703;48.748;19.142;2022-09-28T07:16:13;10.40;;;8.60;;
9328;SDS011;4703;48.748;19.142;2022-09-28T07:18:40;10.23;;;8.13;;
9328;SDS011;4703;48.748;19.142;2022-09-28T07:21:07;11.80;;;9.10;;
9328;SDS011;4703;48.748;19.142;2022-09-28T07:23:44;11.07;;;8.83;;
9328;SDS011;4703;48.748;19.142;2022-09-28T07:26:19;10.30;;;9.20;;
9328;SDS011;4703;48.748;19.142;2022-09-28T07:28:49;10.40;;;8.40;;
9328;SDS011;4703;48.748;19.142;2022-09-28T07:31:17;9.73;;;8.30;;
9328;SDS011;4703;48.748;19.142;2022-09-28T07:33:45;18.27;;;13.50;;
9328;SDS011;4703;48.748;19.142;2022-09-28T07:36:16;16.17;;;13.03;;
9328;SDS011;4703;48.748;19.142;2022-09-28T07:38:43;10.33;;;9.13;;
9328;SDS011;4703;48.748;19.142;2022-09-28T07:41:10;11.00;;;8.43;;
9328;SDS011;4703;48.748;19.142;2022-09-28T07:43:37;10.03;;;9.03;;
9328;SDS011;4703;48.748;19.142;2022-09-28T07:46:06;9.47;;;8.43;;
9328;SDS011;4703;48.748;19.142;2022-09-28T07:48:39;10.63;;;8.57;;
9328;SDS011;4703;48.748;19.142;2022-09-28T07:51:07;11.33;;;8.57;;
9328;SDS011;4703;48.748;19.142;2022-09-28T07:53:35;11.07;;;9.33;;
9328;SDS011;4703;48.748;19.142;2022-09-28T07:56:03;12.43;;;9.80;;
9328;SDS011;4703;48.748;19.142;2022-09-28T07:58:35;14.37;;;9.73;;
9328;SDS011;4703;48.748;19.142;2022-09-28T08:01:07;10.13;;;9.03;;
9328;SDS011;4703;48.748;19.142;2022-09-28T08:03:37;12.30;;;8.40;;
9328;SDS011;4703;48.748;19.142;2022-09-28T08:06:05;18.93;;;15.47;;
9328;SDS011;4703;48.748;19.142;2022-09-28T08:08:35;24.13;;;18.10;;
9328;SDS011;4703;48.748;19.142;2022-09-28T08:11:04;13.00;;;10.40;;
9328;SDS011;4703;48.748;19.142;2022-09-28T08:13:32;13.50;;;9.60;;
9328;SDS011;4703;48.748;19.142;2022-09-28T08:15:59;9.57;;;7.83;;
9328;SDS011;4703;48.748;19.142;2022-09-28T08:18:27;9.50;;;6.83;;
9328;SDS011;4703;48.748;19.142;2022-09-28T08:20:55;7.00;;;6.30;;
9328;SDS011;4703;48.748;19.142;2022-09-28T08:23:40;6.33;;;5.70;;
9328;SDS011;4703;48.748;19.142;2022-09-28T08:26:07;5.57;;;4.97;;
9328;SDS011;4703;48.748;19.142;2022-09-28T08:28:40;4.67;;;4.20;;
9328;SDS011;4703;48.748;19.142;2022-09-28T08:31:10;4.00;;;3.70;;
9328;SDS011;4703;48.748;19.142;2022-09-28T08:33:37;4.83;;;4.43;;
9328;SDS011;4703;48.748;19.142;2022-09-28T08:36:04;3.20;;;3.00;;
9328;SDS011;4703;48.748;19.142;2022-09-28T08:38:31;4.03;;;2.80;;
9328;SDS011;4703;48.748;19.142;2022-09-28T08:43:56;3.23;;;3.00;;
9328;SDS011;4703;48.748;19.142;2022-09-28T08:46:45;3.20;;;3.00;;
9328;SDS011;4703;48.748;19.142;2022-09-28T08:49:18;3.80;;;2.97;;
9328;SDS011;4703;48.748;19.142;2022-09-28T08:52:10;3.50;;;3.00;;
9328;SDS011;4703;48.748;19.142;2022-09-28T08:54:55;5.10;;;3.27;;
9328;SDS011;4703;48.748;19.142;2022-09-28T08:57:32;4.40;;;2.90;;
9328;SDS011;4703;48.748;19.142;2022-09-28T09:00:20;6.57;;;4.80;;
9328;SDS011;4703;48.748;19.142;2022-09-28T09:02:57;2.93;;;2.73;;
9328;SDS011;4703;48.748;19.142;2022-09-28T09:05:40;3.00;;;2.80;;
9328;SDS011;4703;48.748;19.142;2022-09-28T09:08:56;3.90;;;3.00;;
9328;SDS011;4703;48.748;19.142;2022-09-28T09:11:39;2.50;;;2.30;;
9328;SDS011;4703;48.748;19.142;2022-09-28T09:17:37;3.70;;;2.10;;
9328;SDS011;4703;48.748;19.142;2022-09-28T09:20:36;1.93;;;1.83;;
9328;SDS011;4703;48.748;19.142;2022-09-28T09:26:39;2.47;;;2.27;;
9328;SDS011;4703;48.748;19.142;2022-09-28T09:46:18;13.20;;;11.00;;
9328;SDS011;4703;48.748;19.142;2022-09-28T09:49:32;2.17;;;2.07;;
9328;SDS011;4703;48.748;19.142;2022-09-28T09:52:05;1.97;;;1.87;;
9328;SDS011;4703;48.748;19.142;2022-09-28T10:00:12;1.60;;;1.50;;
9328;SDS011;4703;48.748;19.142;2022-09-28T10:02:41;1.57;;;1.47;;
9328;SDS011;4703;48.748;19.142;2022-09-28T10:08:00;1.70;;;1.60;;
9328;SDS011;4703;48.748;19.142;2022-09-28T10:10:38;1.47;;;1.37;;
9328;SDS011;4703;48.748;19.142;2022-09-28T10:13:17;1.63;;;1.53;;
9328;SDS011;4703;48.748;19.142;2022-09-28T10:15:44;1.60;;;1.50;;
9328;SDS011;4703;48.748;19.142;2022-09-28T10:18:15;1.90;;;1.80;;
9328;SDS011;4703;48.748;19.142;2022-09-28T10:20:45;1.57;;;1.47;;
9328;SDS011;4703;48.748;19.142;2022-09-28T10:23:14;1.33;;;1.23;;
9328;SDS011;4703;48.748;19.142;2022-09-28T10:25:48;1.60;;;1.50;;
9328;SDS011;4703;48.748;19.142;2022-09-28T10:28:19;1.63;;;1.53;;
9328;SDS011;4703;48.748;19.142;2022-09-28T10:31:11;1.93;;;1.57;;
9328;SDS011;4703;48.748;19.142;2022-09-28T10:34:07;1.53;;;1.43;;
9328;SDS011;4703;48.748;19.142;2022-09-28T10:36:50;1.40;;;1.30;;
9328;SDS011;4703;48.748;19.142;2022-09-28T10:42:11;2.93;;;1.83;;
9328;SDS011;4703;48.748;19.142;2022-09-28T10:44:50;1.70;;;1.43;;
9328;SDS011;4703;48.748;19.142;2022-09-28T10:47:21;1.33;;;1.27;;
9328;SDS011;4703;48.748;19.142;2022-09-28T10:49:51;1.20;;;1.20;;
9328;SDS011;4703;48.748;19.142;2022-09-28T10:52:28;2.30;;;1.47;;
9328;SDS011;4703;48.748;19.142;2022-09-28T10:55:21;1.37;;;1.20;;
9328;SDS011;4703;48.748;19.142;2022-09-28T10:57:51;1.43;;;1.33;;
9328;SDS011;4703;48.748;19.142;2022-09-28T11:00:29;1.17;;;1.07;;
9328;SDS011;4703;48.748;19.142;2022-09-28T11:03:08;1.43;;;1.33;;
9328;SDS011;4703;48.748;19.142;2022-09-28T11:05:55;1.10;;;1.00;;
9328;SDS011;4703;48.748;19.142;2022-09-28T11:08:27;1.37;;;1.27;;
9328;SDS011;4703;48.748;19.142;2022-09-28T11:11:09;1.77;;;1.67;;
9328;SDS011;4703;48.748;19.142;2022-09-28T11:16:17;1.23;;;1.13;;
9328;SDS011;4703;48.748;19.142;2022-09-28T11:18:49;1.50;;;1.27;;
9328;SDS011;4703;48.748;19.142;2022-09-28T11:21:18;1.40;;;1.30;;
9328;SDS011;4703;48.748;19.142;2022-09-28T11:26:22;1.13;;;1.07;;
9328;SDS011;4703;48.748;19.142;2022-09-28T11:28:50;11.70;;;9.57;;
9328;SDS011;4703;48.748;19.142;2022-09-28T11:31:27;12.43;;;10.33;;
9328;SDS011;4703;48.748;19.142;2022-09-28T11:34:03;2.73;;;2.30;;
9328;SDS011;4703;48.748;19.142;2022-09-28T11:42:59;1.43;;;1.33;;
9328;SDS011;4703;48.748;19.142;2022-09-28T11:46:25;1.50;;;1.40;;
9328;SDS011;4703;48.748;19.142;2022-09-28T11:51:45;1.47;;;1.20;;
9328;SDS011;4703;48.748;19.142;2022-09-28T11:54:21;1.67;;;1.33;;
9328;SDS011;4703;48.748;19.142;2022-09-28T11:57:05;2.30;;;1.13;;
9328;SDS011;4703;48.748;19.142;2022-09-28T11:59:49;1.90;;;1.13;;
9328;SDS011;4703;48.748;19.142;2022-09-28T12:02:35;1.93;;;1.83;;
9328;SDS011;4703;48.748;19.142;2022-09-28T12:10:54;1.33;;;1.23;;
9328;SDS011;4703;48.748;19.142;2022-09-28T12:13:38;1.60;;;1.50;;
9328;SDS011;4703;48.748;19.142;2022-09-28T12:21:47;1.87;;;1.70;;
9328;SDS011;4703;48.748;19.142;2022-09-28T12:24:27;1.93;;;1.50;;
9328;SDS011;4703;48.748;19.142;2022-09-28T12:48:00;1.73;;;1.43;;
9328;SDS011;4703;48.748;19.142;2022-09-28T12:59:31;1.23;;;1.00;;
9328;SDS011;4703;48.748;19.142;2022-09-28T13:07:43;1.47;;;1.37;;
9328;SDS011;4703;48.748;19.142;2022-09-28T13:10:28;1.33;;;1.23;;
9328;SDS011;4703;48.748;19.142;2022-09-28T13:16:06;1.60;;;1.50;;
9328;SDS011;4703;48.748;19.142;2022-09-28T13:19:19;1.30;;;1.20;;
9328;SDS011;4703;48.748;19.142;2022-09-28T13:22:01;1.60;;;1.50;;
9328;SDS011;4703;48.748;19.142;2022-09-28T13:25:02;1.17;;;1.10;;
9328;SDS011;4703;48.748;19.142;2022-09-28T13:28:07;1.80;;;1.53;;
9328;SDS011;4703;48.748;19.142;2022-09-28T13:30:35;1.50;;;1.23;;
9328;SDS011;4703;48.748;19.142;2022-09-28T13:33:05;1.47;;;1.37;;
9328;SDS011;4703;48.748;19.142;2022-09-28T13:35:41;1.50;;;1.40;;
9328;SDS011;4703;48.748;19.142;2022-09-28T13:53:41;1.60;;;1.50;;
9328;SDS011;4703;48.748;19.142;2022-09-28T13:56:47;1.70;;;1.60;;
9328;SDS011;4703;48.748;19.142;2022-09-28T13:59:24;2.17;;;1.80;;
9328;SDS011;4703;48.748;19.142;2022-09-28T14:07:56;2.07;;;1.87;;
9328;SDS011;4703;48.748;19.142;2022-09-28T14:10:51;2.30;;;2.10;;
9328;SDS011;4703;48.748;19.142;2022-09-28T14:18:44;1.70;;;1.60;;
9328;SDS011;4703;48.748;19.142;2022-09-28T14:30:19;2.80;;;1.70;;
9328;SDS011;4703;48.748;19.142;2022-09-28T14:32:53;4.10;;;2.23;;
9328;SDS011;4703;48.748;19.142;2022-09-28T14:35:26;1.73;;;1.50;;
9328;SDS011;4703;48.748;19.142;2022-09-28T14:38:02;2.07;;;1.97;;
9328;SDS011;4703;48.748;19.142;2022-09-28T14:53:58;2.43;;;2.23;;
9328;SDS011;4703;48.748;19.142;2022-09-28T14:56:44;2.50;;;2.30;;
9328;SDS011;4703;48.748;19.142;2022-09-28T14:59:18;2.30;;;2.10;;
9328;SDS011;4703;48.748;19.142;2022-09-28T15:02:06;2.87;;;2.57;;
9328;SDS011;4703;48.748;19.142;2022-09-28T15:04:41;2.57;;;2.30;;
9328;SDS011;4703;48.748;19.142;2022-09-28T15:07:17;2.53;;;2.33;;
9328;SDS011;4703;48.748;19.142;2022-09-28T15:10:20;2.40;;;2.30;;
9328;SDS011;4703;48.748;19.142;2022-09-28T15:12:57;3.90;;;3.60;;
9328;SDS011;4703;48.748;19.142;2022-09-28T15:15:29;4.30;;;3.13;;
9328;SDS011;4703;48.748;19.142;2022-09-28T15:21:08;3.20;;;2.80;;
9328;SDS011;4703;48.748;19.142;2022-09-28T15:23:39;4.10;;;3.30;;
9328;SDS011;4703;48.748;19.142;2022-09-28T15:29:13;2.80;;;2.60;;
9328;SDS011;4703;48.748;19.142;2022-09-28T15:31:43;2.90;;;2.70;;
9328;SDS011;4703;48.748;19.142;2022-09-28T15:34:32;14.00;;;10.67;;
9328;SDS011;4703;48.748;19.142;2022-09-28T15:37:20;37.33;;;28.07;;
9328;SDS011;4703;48.748;19.142;2022-09-28T15:40:10;21.53;;;16.43;;
9328;SDS011;4703;48.748;19.142;2022-09-28T15:42:42;4.30;;;3.43;;
9328;SDS011;4703;48.748;19.142;2022-09-28T15:47:39;3.97;;;3.67;;
9328;SDS011;4703;48.748;19.142;2022-09-28T15:50:21;3.77;;;3.47;;
9328;SDS011;4703;48.748;19.142;2022-09-28T15:55:38;3.90;;;3.60;;
9328;SDS011;4703;48.748;19.142;2022-09-28T16:00:50;3.90;;;3.60;;
9328;SDS011;4703;48.748;19.142;2022-09-28T16:03:46;4.53;;;3.17;;
9328;SDS011;4703;48.748;19.142;2022-09-28T16:06:13;3.40;;;3.10;;
9328;SDS011;4703;48.748;19.142;2022-09-28T16:08:41;3.53;;;3.23;;
9328;SDS011;4703;48.748;19.142;2022-09-28T16:14:05;4.30;;;3.73;;
9328;SDS011;4703;48.748;19.142;2022-09-28T16:16:44;4.27;;;3.90;;
9328;SDS011;4703;48.748;19.142;2022-09-28T16:19:20;3.47;;;3.17;;
9328;SDS011;4703;48.748;19.142;2022-09-28T16:22:02;3.83;;;3.53;;
9328;SDS011;4703;48.748;19.142;2022-09-28T16:24:33;4.87;;;3.43;;
9328;SDS011;4703;48.748;19.142;2022-09-28T16:37:58;5.23;;;4.17;;
9328;SDS011;4703;48.748;19.142;2022-09-28T16:40:31;6.93;;;4.90;;
9328;SDS011;4703;48.748;19.142;2022-09-28T16:42:59;4.50;;;4.10;;
9328;SDS011;4703;48.748;19.142;2022-09-28T16:45:29;4.97;;;4.27;;
9328;SDS011;4703;48.748;19.142;2022-09-28T16:47:58;4.60;;;4.20;;
9328;SDS011;4703;48.748;19.142;2022-09-28T16:50:26;4.30;;;4.00;;
9328;SDS011;4703;48.748;19.142;2022-09-28T16:52:57;5.73;;;4.13;;
9328;SDS011;4703;48.748;19.142;2022-09-28T16:55:57;6.50;;;4.50;;
9328;SDS011;4703;48.748;19.142;2022-09-28T16:58:25;4.77;;;4.37;;
9328;SDS011;4703;48.748;19.142;2022-09-28T17:00:53;4.73;;;4.33;;
9328;SDS011;4703;48.748;19.142;2022-09-28T17:03:20;4.93;;;4.57;;
9328;SDS011;4703;48.748;19.142;2022-09-28T17:05:49;4.90;;;4.40;;
9328;SDS011;4703;48.748;19.142;2022-09-28T17:08:18;5.37;;;4.87;;
9328;SDS011;4703;48.748;19.142;2022-09-28T17:10:55;4.90;;;4.10;;
9328;SDS011;4703;48.748;19.142;2022-09-28T17:13:44;5.80;;;5.30;;
9328;SDS011;4703;48.748;19.142;2022-09-28T17:16:16;6.57;;;6.07;;
9328;SDS011;4703;48.748;19.142;2022-09-28T17:19:02;8.03;;;7.20;;
9328;SDS011;4703;48.748;19.142;2022-09-28T17:21:36;9.20;;;8.30;;
9328;SDS011;4703;48.748;19.142;2022-09-28T17:24:03;8.23;;;7.47;;
9328;SDS011;4703;48.748;19.142;2022-09-28T17:26:30;8.97;;;7.80;;
9328;SDS011;4703;48.748;19.142;2022-09-28T17:28:59;7.83;;;7.13;;
9328;SDS011;4703;48.748;19.142;2022-09-28T17:31:27;7.93;;;7.23;;
9328;SDS011;4703;48.748;19.142;2022-09-28T17:33:55;7.30;;;6.60;;
9328;SDS011;4703;48.748;19.142;2022-09-28T17:36:22;7.30;;;6.70;;
9328;SDS011;4703;48.748;19.142;2022-09-28T17:38:50;8.13;;;6.87;;
9328;SDS011;4703;48.748;19.142;2022-09-28T17:41:18;8.73;;;7.10;;
9328;SDS011;4703;48.748;19.142;2022-09-28T17:43:46;9.47;;;7.60;;
9328;SDS011;4703;48.748;19.142;2022-09-28T17:46:25;9.17;;;8.27;;
9328;SDS011;4703;48.748;19.142;2022-09-28T17:48:57;9.87;;;8.87;;
9328;SDS011;4703;48.748;19.142;2022-09-28T17:51:31;9.10;;;8.30;;
9328;SDS011;4703;48.748;19.142;2022-09-28T17:54:03;10.00;;;8.13;;
9328;SDS011;4703;48.748;19.142;2022-09-28T17:56:33;8.70;;;7.97;;
9328;SDS011;4703;48.748;19.142;2022-09-28T17:59:04;7.90;;;7.20;;
9328;SDS011;4703;48.748;19.142;2022-09-28T18:01:37;7.40;;;6.80;;
9328;SDS011;4703;48.748;19.142;2022-09-28T18:04:05;8.00;;;7.17;;
9328;SDS011;4703;48.748;19.142;2022-09-28T18:06:34;7.40;;;6.70;;
9328;SDS011;4703;48.748;19.142;2022-09-28T18:09:04;7.33;;;6.73;;
9328;SDS011;4703;48.748;19.142;2022-09-28T18:11:31;8.30;;;6.73;;
9328;SDS011;4703;48.748;19.142;2022-09-28T18:13:58;8.70;;;7.90;;
9328;SDS011;4703;48.748;19.142;2022-09-28T18:16:27;8.10;;;7.37;;
9328;SDS011;4703;48.748;19.142;2022-09-28T18:18:54;7.30;;;6.60;;
9328;SDS011;4703;48.748;19.142;2022-09-28T18:21:23;7.83;;;6.70;;
9328;SDS011;4703;48.748;19.142;2022-09-28T18:23:50;7.70;;;7.00;;
9328;SDS011;4703;48.748;19.142;2022-09-28T18:26:17;13.40;;;9.10;;
9328;SDS011;4703;48.748;19.142;2022-09-28T18:28:44;9.07;;;8.17;;
9328;SDS011;4703;48.748;19.142;2022-09-28T18:31:12;9.20;;;8.23;;
9328;SDS011;4703;48.748;19.142;2022-09-28T18:33:41;6.80;;;6.20;;
9328;SDS011;4703;48.748;19.142;2022-09-28T18:36:08;6.57;;;5.87;;
9328;SDS011;4703;48.748;19.142;2022-09-28T18:38:35;7.63;;;6.07;;
9328;SDS011;4703;48.748;19.142;2022-09-28T18:41:10;7.13;;;6.43;;
9328;SDS011;4703;48.748;19.142;2022-09-28T18:43:46;7.30;;;6.60;;
9328;SDS011;4703;48.748;19.142;2022-09-28T18:46:14;7.70;;;7.00;;
9328;SDS011;4703;48.748;19.142;2022-09-28T18:48:45;6.43;;;5.90;;
9328;SDS011;4703;48.748;19.142;2022-09-28T18:51:13;7.60;;;7.00;;
9328;SDS011;4703;48.748;19.142;2022-09-28T18:53:40;8.17;;;7.20;;
9328;SDS011;4703;48.748;19.142;2022-09-28T18:56:08;9.70;;;8.80;;
9328;SDS011;4703;48.748;19.142;2022-09-28T18:58:38;9.67;;;7.93;;
9328;SDS011;4703;48.748;19.142;2022-09-28T19:01:07;8.70;;;7.90;;
9328;SDS011;4703;48.748;19.142;2022-09-28T19:03:57;8.67;;;7.77;;
9328;SDS011;4703;48.748;19.142;2022-09-28T19:06:29;8.20;;;7.40;;
9328;SDS011;4703;48.748;19.142;2022-09-28T19:08:57;9.23;;;8.43;;